Peoria, Arizona
Current Conditions -  °F | °C
As of 12:47 PM on Friday 19 Dec 2014 (Local Time) from KGEU Reporting Station
Scattered Clouds Scattered Clouds  
Wind Chill: 59°   Ceiling: Unl
Heat Index: 59°   Visibility: 20mi
Dew Point: 39°   Wind: 3mph
Humidity: 48%   Direction: 70°ENE
Pressure: 30.2"   Gusts: NA
Location:  33.58°N, 112.24°W
Report Text: KGEU 191947Z 07003KT 20SM SCT250 15/04 A3020
Loading
Personal Weather Stations






























Interactive Weather Map New forecast layout! Learn more

10-Day Weather Forecast

Advertisements
Track Severe Weather on mobile